Calmar, Iowa
Current Conditions -  °F | °C
As of 9:15 AM on Friday 19 Dec 2014 (Local Time) from KDEH Reporting Station
Overcast Overcast  
Wind Chill: 19°   Ceiling: 2600
Heat Index: 25°   Visibility: 10mi
Dew Point: 19°   Wind: 5mph
Humidity: 80%   Direction: 160°SSE
Pressure: 30.26"   Gusts: NA
Location:  43.18°N, 91.86°W
Report Text: KDEH 191515Z AUTO 16004KT 10SM BKN026 OVC070 M04/M07 A3026 RMK AO2
Loading
Personal Weather Stations






























Interactive Weather Map New forecast layout! Learn more

10-Day Weather Forecast

Advertisements
Track Severe Weather on mobile